LOS ANGELES INTL

KLAX (LAX)
Los Angeles, California
Towered

Vatsim Metar:
KLAX 111053Z 08004KT 10SM FEW008 FEW012 SCT160 11/08 A3019 RMK AO2 SLP221 T01110083 $

No ATC Online

Traffic

Inbound:
Ident
Type
Name
ETA
Phase
CLX44MT
H/B744/L
Mike Teague KPDX
15:00 Z
Climb
DAL40
H/B77L/L
Luis Alvarado D. SCTB
15:01 Z
Cruse
AAL26
H/B789/L
Rodolfo Colville MROC
14:53 Z
Cruse
EIN1AK
A333/L
Alex Dickinson EGCN
Unknown
ANZ2
H/B77W/L
Matthew Farrington NZAA
20:39 Z
Cruse
KAL011
H/B748/L
Jimin Park RKSI
19:48 Z
Cruse

Outbound:
Ident
Type
Name
Destination
Phase
AZA27MD
H/B77W/L
Serge Morabito EBBR
LIRF
Climb
THA914
H/B744/L
Julian Furderer EDDK
EDDF
Climb